Austin, TX (78713)

1:02 PM CST on March 05, 2015 (GMT -0600)
Thermal Lab Facility, CSD | Change Station
CLOSE
Current Station
Personal Weather Station
Location: Austin, TX
Elevation: 600 ft
Nearby Weather Stations

Elev 600 ft 30.29 °N, 97.74 °W | Updated 36 seconds ago

Clear
Clear
42.8 °F
Feels Like 43 °F
N
0.0
Wind Variable Wind from NW
Gusts 3.0 mph

Today
High -- | Low -- °F
--% Chance of Precip.
Yesterday
High -- | Low -- °F
Precip. -- in
6:52 AM 6:32 PM
Full, 100% visible
Pressure 30.58 in
Visibility 10.0 miles
Clouds Clear
Windchill 43 °F
Dew Point 22 °F
Humidity 44%
Rainfall in
Snow Depth Not available.
UV 8 out of 12
Pollen 3.60 out of 12
Air Quality Not available.
Flu Activity Not available.
METAR KATT 051851Z AUTO 03011G22KT 10SM CLR 06/M07 A3055 RMK AO2 SLP355 T00611072

More Conditions Fewer Conditions

Pressure 30.58 in
Visibility 10.0 miles
Clouds Clear
Windchill 43 °F
Dew Point 22 °F
Humidity 44%
Rainfall in
Snow Depth Not available.
UV 8 out of 12
Pollen 3.60 out of 12
Air Quality Not available.
Flu Activity Not available.
METAR KATT 051851Z AUTO 03011G22KT 10SM CLR 06/M07 A3055 RMK AO2 SLP355 T00611072

More Conditions Fewer Conditions

10-Day Weather Forecast

Almanac

Astronomy

Mar. 05, 2015 Rise Set
Actual Time
Civil Twilight
Nautical Twilight
Astronomical Twilight
Moon
Length of Visible Light
Length of Day
Tomorrow will be .
, % of the Moon is Illuminated

Today's Extremes

State Highs State Lows

Community

WunderPhotos

Upload Photos

1,802,914 photos uploaded!

WunderBlogs® & News

Nearby

Air Quality

  Air Quality AQ Index Pollutant
Not available.

Snow Depth

Station Depth Elevation

Earthquake Activity

City Distance Mag. Time & Date
Minimum magnitude displayed is 2.5.

Coastal Water Temperatures

Place Temperature

Nearby Weather Stations